Time,TemperatureF,DewpointF,PressureIn,WindDirection,WindDirectionDegrees,WindSpeedMPH,WindSpeedGustMPH,Humidity,HourlyPrecipIn,Conditions,Clouds,dailyrainin,SoftwareType,DateUTC
2013-04-10 00:00:00,69.6,49.1,30.24,East,91,2.7,2.7,48,0.00,,---,0.00,VWS V14.01,2013-04-10 04:00:00,
2013-04-10 00:01:00,69.6,49.1,30.24,East,96,3.1,3.1,48,0.00,,---,0.00,VWS V14.01,2013-04-10 04:01:00,
2013-04-10 00:03:00,69.6,48.5,30.24,ESE,112,3.6,3.6,47,0.00,,---,0.00,VWS V14.01,2013-04-10 04:03:00,
2013-04-10 00:08:00,70.0,47.7,30.24,ESE,104,2.7,2.7,45,0.00,,---,0.00,VWS V14.01,2013-04-10 04:08:00,
2013-04-10 00:13:00,70.2,47.8,30.24,ENE,66,4.0,4.0,45,0.00,,---,0.00,VWS V14.01,2013-04-10 04:13:00,
2013-04-10 00:18:00,70.2,47.8,30.24,East,81,2.2,2.2,45,0.00,,---,0.00,VWS V14.01,2013-04-10 04:18:00,
2013-04-10 00:23:00,70.0,47.7,30.24,East,97,4.0,4.0,45,0.00,,---,0.00,VWS V14.01,2013-04-10 04:23:00,
2013-04-10 00:28:00,69.6,48.5,30.24,SE,136,4.0,4.0,47,0.00,,---,0.00,VWS V14.01,2013-04-10 04:28:00,
2013-04-10 00:33:00,70.0,48.3,30.24,East,79,2.7,3.1,46,0.00,,---,0.00,VWS V14.01,2013-04-10 04:33:00,
2013-04-10 00:39:00,70.0,47.7,30.24,NE,49,0.0,0.0,45,0.00,,---,0.00,VWS V14.01,2013-04-10 04:39:00,
2013-04-10 00:44:00,69.4,48.3,30.24,NE,52,0.0,0.0,47,0.00,,---,0.00,VWS V14.01,2013-04-10 04:44:00,
2013-04-10 00:49:00,69.1,48.6,30.24,NE,52,0.0,0.0,48,0.00,,---,0.00,VWS V14.01,2013-04-10 04:49:00,
2013-04-10 00:54:00,68.9,49.0,30.24,East,92,0.0,0.0,49,0.00,,---,0.00,VWS V14.01,2013-04-10 04:54:00,
2013-04-10 00:59:00,68.7,50.4,30.24,ENE,76,0.0,0.0,52,0.00,,---,0.00,VWS V14.01,2013-04-10 04:59:00,
2013-04-10 01:04:00,68.7,50.9,30.24,East,79,0.0,0.0,53,0.00,,---,0.00,VWS V14.01,2013-04-10 05:04:00,
2013-04-10 01:10:00,68.7,51.9,30.24,ENE,69,0.0,3.6,55,0.00,,---,0.00,VWS V14.01,2013-04-10 05:10:00,
2013-04-10 01:15:00,68.7,51.9,30.21,ENE,67,3.6,3.6,55,0.00,,---,0.00,VWS V14.01,2013-04-10 05:15:00,
2013-04-10 01:20:00,69.3,51.4,30.21,ENE,75,3.1,3.1,53,0.00,,---,0.00,VWS V14.01,2013-04-10 05:20:00,
2013-04-10 01:25:00,69.3,50.9,30.21,East,91,3.1,3.1,52,0.00,,---,0.00,VWS V14.01,2013-04-10 05:25:00,
2013-04-10 01:30:00,69.4,51.1,30.21,ESE,109,2.2,2.2,52,0.00,,---,0.00,VWS V14.01,2013-04-10 05:30:00,
2013-04-10 01:35:00,69.1,51.2,30.21,ENE,65,3.6,3.6,53,0.00,,---,0.00,VWS V14.01,2013-04-10 05:35:00,
2013-04-10 01:40:00,69.1,51.2,30.21,East,93,2.7,2.7,53,0.00,,---,0.00,VWS V14.01,2013-04-10 05:40:00,
2013-04-10 01:45:00,68.4,56.6,30.21,ENE,75,0.0,0.0,66,0.00,,---,0.00,VWS V14.01,2013-04-10 05:45:00,
2013-04-10 01:51:00,68.2,58.0,30.21,East,95,2.7,2.7,70,0.00,,---,0.00,VWS V14.01,2013-04-10 05:51:00,
2013-04-10 01:56:00,68.2,59.2,30.21,East,94,2.2,2.2,73,0.00,,---,0.00,VWS V14.01,2013-04-10 05:56:00,
2013-04-10 02:01:00,68.0,59.4,30.21,East,101,0.0,0.0,74,0.00,,---,0.00,VWS V14.01,2013-04-10 06:01:00,
2013-04-10 02:06:00,67.8,60.0,30.21,ENE,71,0.0,0.0,76,0.00,,---,0.00,VWS V14.01,2013-04-10 06:06:00,
2013-04-10 02:11:00,67.8,60.7,30.21,East,92,0.0,0.0,78,0.00,,---,0.00,VWS V14.01,2013-04-10 06:11:00,
2013-04-10 02:16:00,67.5,60.7,30.21,East,98,0.0,0.0,79,0.00,,---,0.00,VWS V14.01,2013-04-10 06:16:00,
2013-04-10 02:22:00,67.3,60.5,30.21,East,98,0.0,0.0,79,0.00,,---,0.00,VWS V14.01,2013-04-10 06:22:00,
2013-04-10 02:27:00,67.3,60.9,30.21,East,98,0.0,0.0,80,0.00,,---,0.00,VWS V14.01,2013-04-10 06:27:00,
2013-04-10 02:32:00,67.3,61.6,30.21,East,99,0.0,0.0,82,0.04,,---,0.04,VWS V14.01,2013-04-10 06:32:00,
2013-04-10 02:37:00,67.1,61.8,30.21,SE,133,0.0,0.0,83,0.04,,---,0.04,VWS V14.01,2013-04-10 06:37:00,
2013-04-10 02:42:00,66.9,61.2,30.18,ESE,110,0.0,0.0,82,0.04,,---,0.04,VWS V14.01,2013-04-10 06:42:00,
2013-04-10 02:47:00,66.7,61.1,30.18,ESE,110,0.0,0.0,82,0.04,,---,0.04,VWS V14.01,2013-04-10 06:47:00,
2013-04-10 02:53:00,66.6,60.9,30.18,ESE,110,0.0,0.0,82,0.04,,---,0.04,VWS V14.01,2013-04-10 06:53:00,
2013-04-10 02:58:00,66.6,60.9,30.18,ESE,110,0.0,0.0,82,0.04,,---,0.04,VWS V14.01,2013-04-10 06:58:00,
2013-04-10 03:03:00,66.6,61.2,30.18,ESE,110,0.0,0.0,83,0.04,,---,0.04,VWS V14.01,2013-04-10 07:03:00,
2013-04-10 03:08:00,66.6,61.6,30.18,ESE,110,0.0,0.0,84,0.04,,---,0.04,VWS V14.01,2013-04-10 07:08:00,
2013-04-10 03:13:00,66.6,61.2,30.18,ESE,110,0.0,0.0,83,0.04,,---,0.04,VWS V14.01,2013-04-10 07:13:00,
2013-04-10 03:18:00,66.6,61.6,30.18,ESE,110,0.0,0.0,84,0.04,,---,0.04,VWS V14.01,2013-04-10 07:18:00,
2013-04-10 03:23:00,66.6,61.6,30.18,ESE,110,0.0,0.0,84,0.04,,---,0.04,VWS V14.01,2013-04-10 07:23:00,
2013-04-10 03:28:00,66.6,61.6,30.18,ESE,110,0.0,0.0,84,0.04,,---,0.04,VWS V14.01,2013-04-10 07:28:00,
2013-04-10 03:34:00,66.6,61.6,30.18,ESE,110,0.0,0.0,84,0.00,,---,0.04,VWS V14.01,2013-04-10 07:34:00,
2013-04-10 03:39:00,66.6,61.6,30.18,ESE,110,0.0,0.0,84,0.00,,---,0.04,VWS V14.01,2013-04-10 07:39:00,
2013-04-10 03:44:00,66.6,61.9,30.18,ESE,110,0.0,0.0,85,0.00,,---,0.04,VWS V14.01,2013-04-10 07:44:00,
2013-04-10 03:49:00,66.6,61.9,30.18,ESE,110,0.0,0.0,85,0.00,,---,0.04,VWS V14.01,2013-04-10 07:49:00,
2013-04-10 03:54:00,66.7,62.4,30.18,ESE,110,0.0,0.0,86,0.00,,---,0.04,VWS V14.01,2013-04-10 07:54:00,
2013-04-10 03:59:00,66.7,62.4,30.18,ESE,110,0.0,0.0,86,0.00,,---,0.04,VWS V14.01,2013-04-10 07:59:00,
2013-04-10 04:04:00,66.7,62.4,30.18,ESE,110,0.0,0.0,86,0.00,,---,0.04,VWS V14.01,2013-04-10 08:04:00,
2013-04-10 04:10:00,66.7,62.8,30.18,ESE,110,0.0,0.0,87,0.00,,---,0.04,VWS V14.01,2013-04-10 08:10:00,
2013-04-10 04:15:00,66.9,62.9,30.18,ESE,110,0.0,0.0,87,0.00,,---,0.04,VWS V14.01,2013-04-10 08:15:00,
2013-04-10 04:20:00,66.7,62.4,30.18,ESE,109,0.0,0.0,86,0.00,,---,0.04,VWS V14.01,2013-04-10 08:20:00,
2013-04-10 04:25:00,66.7,62.4,30.18,ESE,110,0.0,0.0,86,0.00,,---,0.04,VWS V14.01,2013-04-10 08:25:00,
2013-04-10 04:30:00,66.7,62.8,30.18,ESE,110,0.0,0.0,87,0.00,,---,0.04,VWS V14.01,2013-04-10 08:30:00,
2013-04-10 04:35:00,66.7,62.8,30.18,ESE,110,0.0,0.0,87,0.00,,---,0.04,VWS V14.01,2013-04-10 08:35:00,
2013-04-10 04:40:00,66.7,62.4,30.18,ESE,110,0.0,0.0,86,0.00,,---,0.04,VWS V14.01,2013-04-10 08:40:00,
2013-04-10 04:46:00,66.6,62.6,30.18,ESE,110,0.0,0.0,87,0.00,,---,0.04,VWS V14.01,2013-04-10 08:46:00,
2013-04-10 04:51:00,66.6,62.6,30.18,ESE,110,0.0,0.0,87,0.00,,---,0.04,VWS V14.01,2013-04-10 08:51:00,
2013-04-10 04:56:00,66.6,62.6,30.18,ESE,110,0.0,0.0,87,0.00,,---,0.04,VWS V14.01,2013-04-10 08:56:00,
2013-04-10 05:01:00,66.2,61.9,30.18,ESE,110,0.0,0.0,86,0.00,,---,0.04,VWS V14.01,2013-04-10 09:01:00,
2013-04-10 05:06:00,66.2,62.2,30.18,ESE,110,0.0,0.0,87,0.00,,---,0.04,VWS V14.01,2013-04-10 09:06:00,
2013-04-10 05:12:00,66.4,62.7,30.18,ESE,110,0.0,0.0,88,0.00,,---,0.04,VWS V14.01,2013-04-10 09:12:00,
2013-04-10 05:17:00,66.2,62.2,30.18,ESE,110,0.0,0.0,87,0.00,,---,0.04,VWS V14.01,2013-04-10 09:17:00,
2013-04-10 05:22:00,66.2,62.2,30.18,ESE,110,0.0,0.0,87,0.00,,---,0.04,VWS V14.01,2013-04-10 09:22:00,
2013-04-10 05:28:00,66.0,62.0,30.18,ESE,110,0.0,0.0,87,0.00,,---,0.04,VWS V14.01,2013-04-10 09:28:00,
2013-04-10 05:33:00,65.8,61.5,30.18,ESE,110,0.0,0.0,86,0.00,,---,0.04,VWS V14.01,2013-04-10 09:33:00,
2013-04-10 05:38:00,65.7,61.7,30.18,ESE,110,0.0,0.0,87,0.00,,---,0.04,VWS V14.01,2013-04-10 09:38:00,
2013-04-10 05:43:00,65.8,62.2,30.18,ESE,110,0.0,0.0,88,0.00,,---,0.04,VWS V14.01,2013-04-10 09:43:00,
2013-04-10 05:48:00,65.8,62.5,30.18,ESE,110,0.0,0.0,89,0.00,,---,0.04,VWS V14.01,2013-04-10 09:48:00,
2013-04-10 05:53:00,65.7,62.7,30.18,ESE,110,0.0,0.0,90,0.00,,---,0.04,VWS V14.01,2013-04-10 09:53:00,
2013-04-10 05:58:00,65.8,62.8,30.18,ESE,110,0.0,0.0,90,0.00,,---,0.04,VWS V14.01,2013-04-10 09:58:00,
2013-04-10 06:03:00,65.8,62.8,30.18,ESE,110,0.0,0.0,90,0.00,,---,0.04,VWS V14.01,2013-04-10 10:03:00,
2013-04-10 06:08:00,65.7,62.7,30.18,ESE,110,0.0,0.0,90,0.00,,---,0.04,VWS V14.01,2013-04-10 10:08:00,
2013-04-10 06:14:00,65.5,62.2,30.18,ESE,110,0.0,0.0,89,0.00,,---,0.04,VWS V14.01,2013-04-10 10:14:00,
2013-04-10 06:19:00,65.3,62.0,30.18,ESE,110,0.0,0.0,89,0.00,,---,0.04,VWS V14.01,2013-04-10 10:19:00,
2013-04-10 06:24:00,65.1,61.8,30.18,ESE,110,0.0,0.0,89,0.00,,---,0.04,VWS V14.01,2013-04-10 10:24:00,
2013-04-10 06:29:00,65.1,62.1,30.18,ESE,110,0.0,0.0,90,0.00,,---,0.04,VWS V14.01,2013-04-10 10:29:00,
2013-04-10 06:34:00,65.1,62.1,30.18,ESE,110,0.0,0.0,90,0.00,,---,0.04,VWS V14.01,2013-04-10 10:34:00,
2013-04-10 06:39:00,65.1,62.1,30.18,ESE,110,0.0,0.0,90,0.00,,---,0.04,VWS V14.01,2013-04-10 10:39:00,
2013-04-10 06:45:00,64.9,61.9,30.18,ESE,110,0.0,0.0,90,0.00,,---,0.04,VWS V14.01,2013-04-10 10:45:00,
2013-04-10 06:50:00,64.9,61.9,30.18,ESE,110,0.0,0.0,90,0.00,,---,0.04,VWS V14.01,2013-04-10 10:50:00,
2013-04-10 06:55:00,64.9,61.9,30.18,ESE,110,0.0,0.0,90,0.00,,---,0.04,VWS V14.01,2013-04-10 10:55:00,
2013-04-10 07:00:00,65.1,62.4,30.18,ESE,110,0.0,0.0,91,0.00,,---,0.04,VWS V14.01,2013-04-10 11:00:00,
2013-04-10 07:05:00,65.3,62.6,30.18,ESE,110,0.0,0.0,91,0.00,,---,0.04,VWS V14.01,2013-04-10 11:05:00,
2013-04-10 07:11:00,65.5,63.1,30.18,ESE,110,0.0,0.0,92,0.00,,---,0.04,VWS V14.01,2013-04-10 11:11:00,
2013-04-10 07:16:00,65.7,63.3,30.18,East,97,0.0,0.0,92,0.00,,---,0.04,VWS V14.01,2013-04-10 11:16:00,
2013-04-10 07:21:00,66.0,63.9,30.18,East,97,0.0,0.0,93,0.00,,---,0.04,VWS V14.01,2013-04-10 11:21:00,
2013-04-10 07:27:00,66.4,64.3,30.18,East,97,0.0,0.0,93,0.00,,---,0.04,VWS V14.01,2013-04-10 11:27:00,
2013-04-10 07:32:00,66.6,64.5,30.18,East,93,0.0,0.0,93,0.00,,---,0.04,VWS V14.01,2013-04-10 11:32:00,
2013-04-10 07:37:00,66.9,64.8,30.18,East,93,0.0,0.0,93,0.00,,---,0.04,VWS V14.01,2013-04-10 11:37:00,
2013-04-10 07:42:00,67.5,65.7,30.18,East,93,0.0,0.0,94,0.00,,---,0.04,VWS V14.01,2013-04-10 11:42:00,
2013-04-10 07:47:00,68.0,66.2,30.18,East,93,0.0,0.0,94,0.00,,---,0.04,VWS V14.01,2013-04-10 11:47:00,
2013-04-10 07:52:00,68.4,66.3,30.18,East,93,0.0,0.0,93,0.00,,---,0.04,VWS V14.01,2013-04-10 11:52:00,
2013-04-10 07:57:00,68.9,66.8,30.21,East,101,0.0,0.0,93,0.00,,---,0.04,VWS V14.01,2013-04-10 11:57:00,
2013-04-10 08:02:00,69.3,67.2,30.21,East,81,0.0,0.0,93,0.00,,---,0.04,VWS V14.01,2013-04-10 12:02:00,
2013-04-10 08:08:00,69.8,67.4,30.21,NE,55,0.0,0.0,92,0.00,,---,0.04,VWS V14.01,2013-04-10 12:08:00,
2013-04-10 08:13:00,69.6,66.2,30.21,ENE,57,0.0,0.0,89,0.00,,---,0.04,VWS V14.01,2013-04-10 12:13:00,
2013-04-10 08:18:00,70.3,63.2,30.21,East,93,3.1,3.1,78,0.00,,---,0.04,VWS V14.01,2013-04-10 12:18:00,
2013-04-10 08:23:00,71.6,62.9,30.21,ENE,74,3.1,3.6,74,0.00,,---,0.04,VWS V14.01,2013-04-10 12:23:00,
2013-04-10 08:28:00,72.0,56.4,30.18,East,82,2.2,3.1,58,0.00,,---,0.04,VWS V14.01,2013-04-10 12:28:00,
2013-04-10 08:33:00,73.6,52.7,30.18,ESE,108,5.4,6.3,48,0.00,,---,0.04,VWS V14.01,2013-04-10 12:33:00,
2013-04-10 08:39:00,74.8,52.1,30.18,ESE,109,5.8,6.3,45,0.00,,---,0.04,VWS V14.01,2013-04-10 12:39:00,
2013-04-10 08:44:00,75.6,51.5,30.18,ENE,73,6.3,8.1,43,0.00,,---,0.04,VWS V14.01,2013-04-10 12:44:00,
2013-04-10 08:49:00,76.6,51.2,30.18,ENE,70,4.9,5.8,41,0.00,,---,0.04,VWS V14.01,2013-04-10 12:49:00,
2013-04-10 08:54:00,76.5,51.0,30.18,East,95,3.1,4.0,41,0.00,,---,0.04,VWS V14.01,2013-04-10 12:54:00,
2013-04-10 08:59:00,77.2,48.9,30.18,SE,130,6.3,6.3,37,0.00,,---,0.04,VWS V14.01,2013-04-10 12:59:00,
2013-04-10 09:05:00,77.4,49.1,30.18,ESE,120,6.3,6.3,37,0.00,,---,0.04,VWS V14.01,2013-04-10 13:05:00,
2013-04-10 09:10:00,77.9,49.6,30.18,East,93,3.6,5.4,37,0.00,,---,0.04,VWS V14.01,2013-04-10 13:10:00,
2013-04-10 09:15:00,77.7,48.7,30.18,SE,130,5.8,8.1,36,0.00,,---,0.04,VWS V14.01,2013-04-10 13:15:00,
2013-04-10 09:20:00,78.4,48.5,30.18,East,96,4.9,6.3,35,0.00,,---,0.04,VWS V14.01,2013-04-10 13:20:00,
2013-04-10 09:25:00,77.9,47.3,30.21,SE,143,4.0,4.0,34,0.00,,---,0.04,VWS V14.01,2013-04-10 13:25:00,
2013-04-10 09:30:00,78.6,47.9,30.21,ENE,76,4.9,5.8,34,0.00,,---,0.04,VWS V14.01,2013-04-10 13:30:00,
2013-04-10 09:35:00,80.1,47.6,30.21,SE,145,4.9,5.8,32,0.00,,---,0.04,VWS V14.01,2013-04-10 13:35:00,
2013-04-10 09:41:00,80.1,47.6,30.21,SE,124,4.9,4.9,32,0.00,,---,0.04,VWS V14.01,2013-04-10 13:41:00,
2013-04-10 09:46:00,79.5,47.9,30.21,East,79,5.8,5.8,33,0.00,,---,0.04,VWS V14.01,2013-04-10 13:46:00,
2013-04-10 09:51:00,80.6,47.2,30.21,ESE,104,4.0,5.4,31,0.00,,---,0.04,VWS V14.01,2013-04-10 13:51:00,
2013-04-10 09:56:00,81.5,47.1,30.21,ESE,115,6.3,8.3,30,0.00,,---,0.04,VWS V14.01,2013-04-10 13:56:00,
2013-04-10 10:01:00,80.4,47.9,30.21,East,94,6.3,10.1,32,0.00,,---,0.04,VWS V14.01,2013-04-10 14:01:00,
2013-04-10 10:06:00,82.8,47.3,30.21,SE,124,5.4,5.4,29,0.00,,---,0.04,VWS V14.01,2013-04-10 14:06:00,
2013-04-10 10:11:00,84.9,47.2,30.21,ENE,57,3.1,5.8,27,0.00,,---,0.04,VWS V14.01,2013-04-10 14:11:00,
2013-04-10 10:16:00,84.0,46.5,30.21,East,87,8.7,8.7,27,0.00,,---,0.04,VWS V14.01,2013-04-10 14:16:00,
2013-04-10 10:22:00,83.5,46.0,30.21,SE,127,5.8,10.5,27,0.00,,---,0.04,VWS V14.01,2013-04-10 14:22:00,
2013-04-10 10:27:00,82.4,46.1,30.21,East,99,5.8,11.0,28,0.00,,---,0.04,VWS V14.01,2013-04-10 14:27:00,
2013-04-10 10:32:00,82.9,47.5,30.21,East,82,4.0,9.6,29,0.00,,---,0.04,VWS V14.01,2013-04-10 14:32:00,
2013-04-10 10:37:00,84.7,45.1,30.21,ESE,106,8.1,8.1,25,0.00,,---,0.04,VWS V14.01,2013-04-10 14:37:00,
2013-04-10 10:42:00,83.3,45.9,30.21,ESE,119,5.4,6.7,27,0.00,,---,0.04,VWS V14.01,2013-04-10 14:42:00,
2013-04-10 10:47:00,82.9,47.5,30.21,NE,53,4.0,4.0,29,0.00,,---,0.04,VWS V14.01,2013-04-10 14:47:00,
2013-04-10 10:52:00,82.9,47.5,30.21,ESE,110,5.4,7.6,29,0.00,,---,0.04,VWS V14.01,2013-04-10 14:52:00,
2013-04-10 10:57:00,83.8,45.3,30.21,SSE,147,5.4,8.3,26,0.00,,---,0.04,VWS V14.01,2013-04-10 14:57:00,
2013-04-10 11:03:00,83.8,45.3,30.21,East,101,7.2,7.6,26,0.00,,---,0.04,VWS V14.01,2013-04-10 15:03:00,
2013-04-10 11:08:00,86.2,44.1,30.21,East,85,5.4,5.8,23,0.00,,---,0.04,VWS V14.01,2013-04-10 15:08:00,
2013-04-10 11:13:00,86.2,44.1,30.21,ESE,106,7.6,7.6,23,0.00,,---,0.04,VWS V14.01,2013-04-10 15:13:00,
2013-04-10 11:18:00,86.2,44.1,30.21,ESE,111,5.8,7.6,23,0.00,,---,0.04,VWS V14.01,2013-04-10 15:18:00,
2013-04-10 11:23:00,82.8,47.3,30.21,East,86,8.7,8.7,29,0.00,,---,0.04,VWS V14.01,2013-04-10 15:23:00,
2013-04-10 11:28:00,86.9,46.9,30.21,South,176,8.7,8.7,25,0.00,,---,0.04,VWS V14.01,2013-04-10 15:28:00,
2013-04-10 11:33:00,87.1,43.7,30.21,SE,135,8.1,11.0,22,0.00,,---,0.04,VWS V14.01,2013-04-10 15:33:00,
2013-04-10 11:39:00,86.9,42.3,30.21,SE,135,5.4,10.1,21,0.00,,---,0.04,VWS V14.01,2013-04-10 15:39:00,
2013-04-10 11:44:00,88.9,43.9,30.21,SE,145,10.5,10.5,21,0.00,,---,0.04,VWS V14.01,2013-04-10 15:44:00,
2013-04-10 11:49:00,86.5,43.2,30.21,SE,124,5.8,5.8,22,0.00,,---,0.04,VWS V14.01,2013-04-10 15:49:00,
2013-04-10 11:54:00,85.8,41.4,30.21,East,79,8.3,8.3,21,0.00,,---,0.04,VWS V14.01,2013-04-10 15:54:00,
2013-04-10 11:59:00,86.9,43.5,30.21,SSE,154,3.6,5.8,22,0.00,,---,0.04,VWS V14.01,2013-04-10 15:59:00,
2013-04-10 12:04:00,84.6,43.8,30.21,ESE,102,6.3,6.3,24,0.00,,---,0.04,VWS V14.01,2013-04-10 16:04:00,
2013-04-10 12:10:00,86.2,44.1,30.21,SSE,158,5.8,11.0,23,0.00,,---,0.04,VWS V14.01,2013-04-10 16:10:00,
2013-04-10 12:15:00,87.3,42.6,30.21,SE,132,4.0,8.1,21,0.00,,---,0.04,VWS V14.01,2013-04-10 16:15:00,
2013-04-10 12:20:00,87.6,42.9,30.21,SE,146,7.6,11.0,21,0.00,,---,0.04,VWS V14.01,2013-04-10 16:20:00,
2013-04-10 12:25:00,86.7,42.2,30.21,SSE,163,5.4,6.7,21,0.00,,---,0.04,VWS V14.01,2013-04-10 16:25:00,
2013-04-10 12:30:00,86.0,42.8,30.21,SE,136,8.3,11.0,22,0.00,,---,0.04,VWS V14.01,2013-04-10 16:30:00,
2013-04-10 12:35:00,86.0,42.8,30.21,ESE,106,10.5,10.5,22,0.00,,---,0.04,VWS V14.01,2013-04-10 16:35:00,
2013-04-10 12:41:00,87.1,42.5,30.21,ENE,77,5.8,7.6,21,0.00,,---,0.04,VWS V14.01,2013-04-10 16:41:00,
2013-04-10 12:46:00,87.8,44.3,30.21,SE,143,3.6,6.3,22,0.00,,---,0.04,VWS V14.01,2013-04-10 16:46:00,
2013-04-10 12:51:00,89.8,42.1,30.21,SSE,151,6.3,9.2,19,0.00,,---,0.04,VWS V14.01,2013-04-10 16:51:00,
2013-04-10 12:56:00,89.8,42.1,30.21,SSW,194,6.7,8.7,19,0.00,,---,0.04,VWS V14.01,2013-04-10 16:56:00,
2013-04-10 13:01:00,89.8,42.1,30.21,ENE,66,4.0,5.4,19,0.00,,---,0.04,VWS V14.01,2013-04-10 17:01:00,
2013-04-10 13:06:00,88.9,42.7,30.21,East,85,2.7,2.7,20,0.00,,---,0.04,VWS V14.01,2013-04-10 17:06:00,
2013-04-10 13:11:00,90.1,43.7,30.21,ESE,118,3.6,10.1,20,0.00,,---,0.04,VWS V14.01,2013-04-10 17:11:00,
2013-04-10 13:17:00,90.1,43.7,30.21,ESE,105,7.6,11.0,20,0.00,,---,0.04,VWS V14.01,2013-04-10 17:17:00,
2013-04-10 13:22:00,91.0,43.1,30.21,ESE,117,8.1,8.1,19,0.00,,---,0.04,VWS V14.01,2013-04-10 17:22:00,
2013-04-10 13:27:00,91.0,43.1,30.18,South,184,10.1,10.1,19,0.00,,---,0.04,VWS V14.01,2013-04-10 17:27:00,
2013-04-10 13:32:00,88.5,41.0,30.18,East,79,6.3,11.4,19,0.00,,---,0.04,VWS V14.01,2013-04-10 17:32:00,
2013-04-10 13:37:00,91.2,43.2,30.18,ESE,111,5.4,7.6,19,0.00,,---,0.04,VWS V14.01,2013-04-10 17:37:00,
2013-04-10 13:42:00,91.2,43.2,30.18,East,89,7.6,7.6,19,0.00,,---,0.04,VWS V14.01,2013-04-10 17:42:00,
2013-04-10 13:47:00,91.2,43.2,30.18,SE,132,8.1,10.5,19,0.00,,---,0.04,VWS V14.01,2013-04-10 17:47:00,
2013-04-10 13:53:00,88.9,43.9,30.18,ESE,120,10.1,11.9,21,0.00,,---,0.04,VWS V14.01,2013-04-10 17:53:00,
2013-04-10 13:58:00,89.8,44.7,30.18,ENE,69,8.1,8.1,21,0.00,,---,0.04,VWS V14.01,2013-04-10 17:58:00,
2013-04-10 14:03:00,87.1,43.7,30.18,SSE,150,5.8,8.3,22,0.00,,---,0.04,VWS V14.01,2013-04-10 18:03:00,
2013-04-10 14:08:00,87.1,43.7,30.18,ESE,105,9.6,9.6,22,0.00,,---,0.04,VWS V14.01,2013-04-10 18:08:00,
2013-04-10 14:13:00,87.1,43.7,30.18,South,187,5.4,5.4,22,0.00,,---,0.04,VWS V14.01,2013-04-10 18:13:00,
2013-04-10 14:18:00,89.2,44.2,30.18,ESE,112,8.1,8.1,21,0.00,,---,0.04,VWS V14.01,2013-04-10 18:18:00,
2013-04-10 14:23:00,90.9,44.3,30.18,SE,134,14.5,14.5,20,0.00,,---,0.04,VWS V14.01,2013-04-10 18:23:00,
2013-04-10 14:28:00,85.8,42.6,30.18,ESE,111,11.0,11.0,22,0.00,,---,0.04,VWS V14.01,2013-04-10 18:28:00,
2013-04-10 14:34:00,85.3,42.2,30.18,ENE,72,6.3,8.3,22,0.00,,---,0.04,VWS V14.01,2013-04-10 18:34:00,
2013-04-10 14:39:00,84.9,43.0,30.18,SE,144,8.3,8.3,23,0.00,,---,0.04,VWS V14.01,2013-04-10 18:39:00,
2013-04-10 14:44:00,83.1,42.6,30.18,SSE,156,9.6,9.6,24,0.00,,---,0.04,VWS V14.01,2013-04-10 18:44:00,
2013-04-10 14:49:00,83.1,42.6,30.18,SE,142,13.2,13.2,24,0.00,,---,0.04,VWS V14.01,2013-04-10 18:49:00,
2013-04-10 14:54:00,88.2,43.3,30.18,ESE,112,5.8,6.3,21,0.00,,---,0.04,VWS V14.01,2013-04-10 18:54:00,
2013-04-10 14:59:00,85.1,42.0,30.18,ESE,110,5.4,5.4,22,0.00,,---,0.04,VWS V14.01,2013-04-10 18:59:00,
2013-04-10 15:05:00,85.6,44.7,30.18,East,93,5.4,8.1,24,0.00,,---,0.04,VWS V14.01,2013-04-10 19:05:00,
2013-04-10 15:10:00,85.5,44.6,30.18,SE,137,7.6,8.1,24,0.00,,---,0.04,VWS V14.01,2013-04-10 19:10:00,
2013-04-10 15:15:00,87.1,43.7,30.18,SSE,168,6.3,8.1,22,0.00,,---,0.04,VWS V14.01,2013-04-10 19:15:00,
2013-04-10 15:20:00,87.1,43.7,30.18,ENE,78,6.3,6.3,22,0.00,,---,0.04,VWS V14.01,2013-04-10 19:20:00,
2013-04-10 15:25:00,90.1,43.7,30.18,ENE,77,4.0,8.1,20,0.00,,---,0.04,VWS V14.01,2013-04-10 19:25:00,
2013-04-10 15:30:00,91.2,43.2,30.18,East,98,5.8,5.8,19,0.00,,---,0.04,VWS V14.01,2013-04-10 19:30:00,
2013-04-10 15:36:00,91.2,43.2,30.18,ENE,76,5.8,6.3,19,0.00,,---,0.04,VWS V14.01,2013-04-10 19:36:00,
2013-04-10 15:41:00,89.8,42.1,30.18,East,82,8.3,8.7,19,0.00,,---,0.04,VWS V14.01,2013-04-10 19:41:00,
2013-04-10 15:46:00,86.4,43.1,30.18,ENE,75,5.4,9.6,22,0.00,,---,0.04,VWS V14.01,2013-04-10 19:46:00,
2013-04-10 15:51:00,90.3,43.8,30.18,ENE,70,6.3,6.3,20,0.00,,---,0.04,VWS V14.01,2013-04-10 19:51:00,
2013-04-10 15:56:00,90.3,43.8,30.15,ESE,119,5.4,5.4,20,0.00,,---,0.04,VWS V14.01,2013-04-10 19:56:00,
2013-04-10 16:02:00,89.4,43.1,30.15,ESE,105,10.1,10.1,20,0.00,,---,0.04,VWS V14.01,2013-04-10 20:02:00,
2013-04-10 16:07:00,89.4,43.1,30.15,SSE,148,10.1,10.1,20,0.00,,---,0.04,VWS V14.01,2013-04-10 20:07:00,
2013-04-10 16:12:00,90.0,42.2,30.15,ESE,115,4.0,4.0,19,0.00,,---,0.04,VWS V14.01,2013-04-10 20:12:00,
2013-04-10 16:17:00,91.2,43.2,30.15,SSE,157,8.3,8.3,19,0.00,,---,0.04,VWS V14.01,2013-04-10 20:17:00,
2013-04-10 16:22:00,90.7,42.8,30.15,ENE,67,7.6,8.1,19,0.00,,---,0.04,VWS V14.01,2013-04-10 20:22:00,
2013-04-10 16:28:00,91.6,43.5,30.15,SE,125,3.6,3.6,19,0.00,,---,0.04,VWS V14.01,2013-04-10 20:28:00,
2013-04-10 16:33:00,90.0,43.5,30.15,SSE,147,8.1,8.1,20,0.00,,---,0.04,VWS V14.01,2013-04-10 20:33:00,
2013-04-10 16:38:00,91.0,43.1,30.15,SE,127,3.6,3.6,19,0.00,,---,0.04,VWS V14.01,2013-04-10 20:38:00,
2013-04-10 16:43:00,92.8,44.6,30.15,East,96,9.2,9.2,19,0.00,,---,0.04,VWS V14.01,2013-04-10 20:43:00,
2013-04-10 16:48:00,91.6,43.5,30.15,SE,125,7.6,7.6,19,0.00,,---,0.04,VWS V14.01,2013-04-10 20:48:00,
2013-04-10 16:53:00,91.0,44.4,30.15,SE,137,10.1,10.1,20,0.00,,---,0.04,VWS V14.01,2013-04-10 20:53:00,
2013-04-10 16:58:00,89.1,44.1,30.15,East,98,8.3,11.0,21,0.00,,---,0.04,VWS V14.01,2013-04-10 20:58:00,
2013-04-10 17:04:00,89.4,44.4,30.15,ESE,112,5.8,5.8,21,0.00,,---,0.04,VWS V14.01,2013-04-10 21:04:00,
2013-04-10 17:09:00,88.3,43.5,30.12,SE,131,6.3,6.3,21,0.00,,---,0.04,VWS V14.01,2013-04-10 21:09:00,
2013-04-10 17:14:00,88.0,44.4,30.12,East,97,5.4,7.6,22,0.00,,---,0.04,VWS V14.01,2013-04-10 21:14:00,
2013-04-10 17:19:00,87.1,44.8,30.12,SE,125,4.0,4.0,23,0.00,,---,0.04,VWS V14.01,2013-04-10 21:19:00,
2013-04-10 17:24:00,84.6,44.9,30.12,SE,129,11.4,11.4,25,0.00,,---,0.04,VWS V14.01,2013-04-10 21:24:00,
2013-04-10 17:29:00,82.8,46.4,30.12,NNE,29,5.8,8.1,28,0.00,,---,0.04,VWS V14.01,2013-04-10 21:29:00,
2013-04-10 17:35:00,82.8,46.4,30.12,SE,138,8.3,10.1,28,0.00,,---,0.04,VWS V14.01,2013-04-10 21:35:00,
2013-04-10 17:40:00,81.7,47.3,30.12,East,100,7.6,7.6,30,0.00,,---,0.04,VWS V14.01,2013-04-10 21:40:00,
2013-04-10 17:45:00,81.5,47.1,30.12,East,101,3.6,7.6,30,0.00,,---,0.04,VWS V14.01,2013-04-10 21:45:00,
2013-04-10 17:50:00,81.0,46.6,30.12,SE,135,5.8,8.7,30,0.00,,---,0.04,VWS V14.01,2013-04-10 21:50:00,
2013-04-10 17:55:00,81.0,46.6,30.12,SE,131,7.6,8.3,30,0.00,,---,0.04,VWS V14.01,2013-04-10 21:55:00,
2013-04-10 18:00:00,80.6,46.3,30.12,ESE,103,2.7,3.6,30,0.00,,---,0.04,VWS V14.01,2013-04-10 22:00:00,
2013-04-10 18:05:00,80.8,47.4,30.12,East,98,8.1,9.6,31,0.00,,---,0.04,VWS V14.01,2013-04-10 22:05:00,
2013-04-10 18:10:00,80.4,47.9,30.12,ESE,114,4.9,4.9,32,0.00,,---,0.04,VWS V14.01,2013-04-10 22:10:00,
2013-04-10 18:16:00,80.1,47.6,30.12,SE,124,10.1,10.1,32,0.00,,---,0.04,VWS V14.01,2013-04-10 22:16:00,
2013-04-10 18:21:00,80.1,47.6,30.12,ENE,75,8.1,11.0,32,0.00,,---,0.04,VWS V14.01,2013-04-10 22:21:00,
2013-04-10 18:26:00,79.3,47.8,30.12,ESE,120,8.7,8.7,33,0.00,,---,0.04,VWS V14.01,2013-04-10 22:26:00,
2013-04-10 18:31:00,78.8,47.3,30.12,SSE,158,6.7,9.6,33,0.00,,---,0.04,VWS V14.01,2013-04-10 22:31:00,
2013-04-10 18:36:00,78.8,47.3,30.12,SE,129,5.4,5.4,33,0.00,,---,0.04,VWS V14.01,2013-04-10 22:36:00,
2013-04-10 18:41:00,78.8,47.3,30.12,SE,145,4.0,5.8,33,0.00,,---,0.04,VWS V14.01,2013-04-10 22:41:00,
2013-04-10 18:46:00,77.7,49.4,30.12,ESE,115,7.6,7.6,37,0.00,,---,0.04,VWS V14.01,2013-04-10 22:46:00,
2013-04-10 18:52:00,77.5,50.0,30.12,ESE,115,5.8,8.1,38,0.00,,---,0.04,VWS V14.01,2013-04-10 22:52:00,
2013-04-10 18:57:00,77.4,50.5,30.12,ENE,59,7.6,10.1,39,0.00,,---,0.04,VWS V14.01,2013-04-10 22:57:00,
2013-04-10 19:02:00,77.2,51.0,30.12,ESE,123,8.3,8.3,40,0.00,,---,0.04,VWS V14.01,2013-04-10 23:02:00,
2013-04-10 19:07:00,76.8,51.4,30.12,ESE,122,5.4,5.8,41,0.00,,---,0.04,VWS V14.01,2013-04-10 23:07:00,
2013-04-10 19:12:00,76.5,51.7,30.12,ESE,102,5.4,8.1,42,0.00,,---,0.04,VWS V14.01,2013-04-10 23:12:00,
2013-04-10 19:17:00,76.3,51.5,30.12,ESE,117,5.8,6.3,42,0.00,,---,0.04,VWS V14.01,2013-04-10 23:17:00,
2013-04-10 19:22:00,76.1,52.0,30.12,ENE,73,2.7,4.0,43,0.00,,---,0.04,VWS V14.01,2013-04-10 23:22:00,
2013-04-10 19:27:00,76.1,52.6,30.12,ENE,78,7.6,7.6,44,0.00,,---,0.04,VWS V14.01,2013-04-10 23:27:00,
2013-04-10 19:32:00,76.1,52.6,30.12,ESE,122,4.0,4.0,44,0.00,,---,0.04,VWS V14.01,2013-04-10 23:32:00,
2013-04-10 19:38:00,75.9,52.5,30.12,East,83,5.4,5.4,44,0.00,,---,0.04,VWS V14.01,2013-04-10 23:38:00,
2013-04-10 19:43:00,75.9,52.5,30.12,East,88,7.6,8.3,44,0.00,,---,0.04,VWS V14.01,2013-04-10 23:43:00,
2013-04-10 19:48:00,76.1,52.0,30.12,ESE,117,5.8,5.8,43,0.00,,---,0.04,VWS V14.01,2013-04-10 23:48:00,
2013-04-10 19:53:00,76.1,52.6,30.12,ESE,108,5.8,6.3,44,0.00,,---,0.04,VWS V14.01,2013-04-10 23:53:00,
2013-04-10 19:58:00,76.1,52.0,30.12,East,83,4.5,4.9,43,0.00,,---,0.04,VWS V14.01,2013-04-10 23:58:00,
2013-04-10 20:03:00,76.1,52.6,30.12,ESE,114,5.8,5.8,44,0.00,,---,0.04,VWS V14.01,2013-04-11 00:03:00,
2013-04-10 20:08:00,76.1,52.6,30.12,SE,127,4.0,5.8,44,0.00,,---,0.04,VWS V14.01,2013-04-11 00:08:00,
2013-04-10 20:14:00,75.9,53.1,30.12,East,81,3.1,4.0,45,0.00,,---,0.04,VWS V14.01,2013-04-11 00:14:00,
2013-04-10 20:19:00,75.7,52.9,30.12,ENE,67,4.0,5.8,45,0.00,,---,0.04,VWS V14.01,2013-04-11 00:19:00,
2013-04-10 20:24:00,75.7,52.9,30.12,ESE,105,6.3,6.3,45,0.00,,---,0.04,VWS V14.01,2013-04-11 00:24:00,
2013-04-10 20:29:00,75.7,52.9,30.12,SE,131,6.3,6.3,45,0.00,,---,0.04,VWS V14.01,2013-04-11 00:29:00,
2013-04-10 20:34:00,75.7,52.9,30.12,East,97,7.6,8.3,45,0.00,,---,0.04,VWS V14.01,2013-04-11 00:34:00,
2013-04-10 20:40:00,75.6,53.3,30.12,East,99,5.4,6.3,46,0.00,,---,0.04,VWS V14.01,2013-04-11 00:40:00,
2013-04-10 20:45:00,75.6,53.3,30.12,ESE,119,8.3,8.3,46,0.00,,---,0.04,VWS V14.01,2013-04-11 00:45:00,
2013-04-10 20:50:00,75.6,53.3,30.12,SE,142,5.8,7.2,46,0.00,,---,0.04,VWS V14.01,2013-04-11 00:50:00,
2013-04-10 20:55:00,75.4,53.8,30.12,East,98,3.1,3.1,47,0.00,,---,0.04,VWS V14.01,2013-04-11 00:55:00,
2013-04-10 21:00:00,75.4,53.8,30.12,ESE,122,5.4,6.3,47,0.00,,---,0.04,VWS V14.01,2013-04-11 01:00:00,
2013-04-10 21:05:00,75.6,53.3,30.12,SE,146,5.4,5.4,46,0.00,,---,0.04,VWS V14.01,2013-04-11 01:05:00,
2013-04-10 21:10:00,75.4,53.2,30.12,East,101,3.6,4.9,46,0.00,,---,0.04,VWS V14.01,2013-04-11 01:10:00,
2013-04-10 21:16:00,75.6,53.3,30.15,SE,128,5.8,5.8,46,0.00,,---,0.04,VWS V14.01,2013-04-11 01:16:00,
2013-04-10 21:21:00,75.7,53.5,30.15,East,93,5.4,5.8,46,0.00,,---,0.04,VWS V14.01,2013-04-11 01:21:00,
2013-04-10 21:26:00,75.7,53.5,30.15,ESE,113,5.8,5.8,46,0.00,,---,0.04,VWS V14.01,2013-04-11 01:26:00,
2013-04-10 21:31:00,75.7,53.5,30.15,SE,127,9.2,9.2,46,0.00,,---,0.04,VWS V14.01,2013-04-11 01:31:00,
2013-04-10 21:37:00,75.9,52.5,30.15,East,93,3.6,4.9,44,0.00,,---,0.04,VWS V14.01,2013-04-11 01:37:00,
2013-04-10 21:42:00,76.1,52.0,30.15,ESE,123,2.7,8.3,43,0.00,,---,0.04,VWS V14.01,2013-04-11 01:42:00,
2013-04-10 21:47:00,75.9,52.5,30.15,East,92,6.3,6.3,44,0.00,,---,0.04,VWS V14.01,2013-04-11 01:47:00,
2013-04-10 21:52:00,75.7,52.3,30.15,ESE,116,8.3,8.3,44,0.00,,---,0.04,VWS V14.01,2013-04-11 01:52:00,
2013-04-10 21:57:00,75.6,52.8,30.15,SE,129,3.1,8.1,45,0.00,,---,0.04,VWS V14.01,2013-04-11 01:57:00,
2013-04-10 22:02:00,75.7,52.9,30.15,ESE,112,4.0,6.3,45,0.00,,---,0.04,VWS V14.01,2013-04-11 02:02:00,
2013-04-10 22:07:00,75.7,52.9,30.15,ESE,119,3.1,4.9,45,0.00,,---,0.04,VWS V14.01,2013-04-11 02:07:00,
2013-04-10 22:12:00,75.4,53.2,30.15,ESE,121,5.8,6.3,46,0.00,,---,0.04,VWS V14.01,2013-04-11 02:12:00,
2013-04-10 22:18:00,75.7,52.9,30.15,East,83,3.6,4.0,45,0.00,,---,0.04,VWS V14.01,2013-04-11 02:18:00,
2013-04-10 22:23:00,75.6,52.8,30.15,SSE,166,5.8,5.8,45,0.00,,---,0.04,VWS V14.01,2013-04-11 02:23:00,
2013-04-10 22:28:00,75.4,53.2,30.15,ESE,103,5.4,6.3,46,0.00,,---,0.04,VWS V14.01,2013-04-11 02:28:00,
2013-04-10 22:33:00,75.4,52.6,30.15,SSE,150,5.4,6.3,45,0.00,,---,0.04,VWS V14.01,2013-04-11 02:33:00,
2013-04-10 22:38:00,75.2,53.0,30.15,ESE,119,5.4,5.4,46,0.00,,---,0.04,VWS V14.01,2013-04-11 02:38:00,
2013-04-10 22:43:00,75.0,53.4,30.15,SE,140,6.3,6.3,47,0.00,,---,0.04,VWS V14.01,2013-04-11 02:43:00,
2013-04-10 22:48:00,75.4,52.0,30.15,ENE,61,5.4,5.4,44,0.00,,---,0.04,VWS V14.01,2013-04-11 02:48:00,
2013-04-10 22:53:00,75.4,52.6,30.15,SSE,149,3.1,3.6,45,0.00,,---,0.04,VWS V14.01,2013-04-11 02:53:00,
2013-04-10 22:58:00,75.4,52.6,30.15,SE,144,5.4,5.4,45,0.00,,---,0.04,VWS V14.01,2013-04-11 02:58:00,
2013-04-10 23:04:00,75.7,52.3,30.15,East,99,5.8,6.7,44,0.00,,---,0.04,VWS V14.01,2013-04-11 03:04:00,
2013-04-10 23:09:00,75.7,52.3,30.15,SE,133,5.8,8.7,44,0.00,,---,0.04,VWS V14.01,2013-04-11 03:09:00,
2013-04-10 23:14:00,75.6,52.8,30.15,SSE,150,6.3,6.3,45,0.00,,---,0.04,VWS V14.01,2013-04-11 03:14:00,
2013-04-10 23:19:00,75.7,52.3,30.15,East,90,5.8,5.8,44,0.00,,---,0.04,VWS V14.01,2013-04-11 03:19:00,
2013-04-10 23:25:00,75.6,52.8,30.15,ESE,118,7.6,8.1,45,0.00,,---,0.04,VWS V14.01,2013-04-11 03:25:00,
2013-04-10 23:30:00,75.4,52.6,30.15,ESE,106,5.8,5.8,45,0.00,,---,0.04,VWS V14.01,2013-04-11 03:30:00,
2013-04-10 23:35:00,75.6,52.1,30.15,ENE,69,8.1,8.1,44,0.00,,---,0.04,VWS V14.01,2013-04-11 03:35:00,
2013-04-10 23:40:00,75.6,52.1,30.15,ESE,119,5.8,5.8,44,0.00,,---,0.04,VWS V14.01,2013-04-11 03:40:00,
2013-04-10 23:46:00,75.6,52.1,30.15,ESE,111,4.0,5.8,44,0.00,,---,0.04,VWS V14.01,2013-04-11 03:46:00,
2013-04-10 23:51:00,75.2,52.4,30.15,ESE,113,5.4,5.4,45,0.00,,---,0.04,VWS V14.01,2013-04-11 03:51:00,
2013-04-10 23:56:00,75.4,52.0,30.15,SE,142,5.4,5.4,44,0.00,,---,0.04,VWS V14.01,2013-04-11 03:56:00,